Barksdale Air Force Base
KBAD : now visible

Airfield :











YOU CAN JOIN US ON...

 
LOGIN :

Register | Disclaimer

   EN    FR    IT 

 









Legend :    VFR   Marginal VFR   IFR   Intensive IFR   Very Intensive IFR
Visi :
Ceiling :
>= 8 km
>= 3000ft
5 to 8 km
1000 to 3000 ft
1500m to 5 km
500 to 1000 ft
800 to 1500m
200 to 500 ft
< 800m
< 200 ft
Symbols :   Thunderstorms  Fog  Heavy snow  Heavy precipitations  Wind > 20 kt






- Airport Elevation : 166 ft


KBAD - Barksdale Air Force Base

CURRENT METAR :
  • 251956Z AUTO 28009KT 10SM OVC047 21/14 A2965 RMK AO2 SLP042 T02070136

EXPIRED METARs :
  • 251856Z AUTO 24004KT 10SM OVC046 19/15 A2966 RMK AO2 RAB1756E1759 SLP046 P0000 T01870146
  • 251741Z 27012G27KT 10SM -RA OVC018 19/14 A2970 RMK AO2A RAB33 SLP059 53003
  • 251732Z 25023G27KT 220V280 1 1/2SM RA BR OVC018 22/19 A2969 RMK AO2A SLP056 53000

TAF TAF KBAD
Valid from the 25 at 18:00 until the 27 at 00:00 UTC


251800Z 2518/2624 21009KT 9999 BKN040 QNH2964INS
BECMG 2600/2601 25005KT 9999 SKC QNH2968INS WND 30007KT AFT 2616 TX18/2518Z TN08/2613Z
KZFW FIR / North America



MET'MAP, your aeronautical weather chart ! - Copyright ORBIFLY December 2007 - Disclaimer

ORBIFLY MET'MAP TEAM :

Programming & Development : Alexandra Zaïnal
Concept & original design : Baudouin d'Aumeries
Assistance for programming : Marc-Olivier Méhu
Technical & hardware support : Manuel Goepfert

Contact : metmap@orbifly.com




SOURCES & CREDITS :

   NOAA       Earth
Advisory